Home   Weather   USA   Galveston   Past weeks
Flag for USA

Past Weather in Galveston, Texas, USA — February 2021

Currently: 75 °F. Fog. (Weather station: Scholes Field, USA). See more current weather

February 2021 Weather in Galveston — Graph

°F

High & Low Weather Summary for February 2021

 TemperatureHumidityPressure
High73 °F (Feb 10, 2:52 pm)97% (Feb 9, 12:20 am)30.55 "Hg (Feb 9, 12:20 am)
Low20 °F (Feb 16, 2:27 am)28% (Feb 1, 3:52 pm)29.80 "Hg (Feb 4, 1:52 pm)
Average54 °F80%30.07 "Hg
* Reported Feb 1 12:52 am — Feb 28 11:28 pm, Galveston. Weather by CustomWeather, © 2022

Note: Actual official high and low records may vary slightly from our data, if they occured in-between our weather recording intervals... More about our weather records

Galveston Weather History for February 1, 2021

Scroll right to see more
 ConditionsComfort  
Time TempWeatherWind HumidityBarometerVisibility
12:52 am
Mon, Feb 1
55 °FClear.22 mph53%30.32 "Hg10 mi
1:52 am54 °FClear.20 mph55%30.33 "Hg10 mi
2:52 am54 °FClear.24 mph51%30.34 "Hg10 mi
3:52 am53 °FClear.26 mph52%30.33 "Hg10 mi
4:52 am52 °FClear.18 mph57%30.35 "Hg10 mi
5:52 am51 °FClear.24 mph56%30.36 "Hg10 mi
6:52 am50 °FClear.22 mph59%30.38 "Hg10 mi
7:52 am50 °FSunny.21 mph59%30.39 "Hg10 mi
8:52 am50 °FSunny.20 mph59%30.40 "Hg10 mi
9:52 am51 °FSunny.17 mph59%30.40 "Hg10 mi
10:52 am53 °FSunny.16 mph55%30.40 "Hg10 mi
11:52 am55 °FSunny.12 mph51%30.38 "Hg10 mi
12:52 pm58 °FSunny.12 mph47%30.35 "Hg10 mi
1:52 pm61 °FSunny.12 mph44%30.32 "Hg10 mi
2:52 pm63 °FSunny.15 mph37%30.30 "Hg10 mi
3:52 pm64 °FSunny.15 mph28%30.29 "Hg10 mi
4:52 pm63 °FSunny.13 mph33%30.29 "Hg10 mi
5:52 pm60 °FSunny.8 mph41%30.29 "Hg10 mi
6:52 pm58 °FClear.8 mph41%30.29 "Hg10 mi
7:52 pm57 °FClear.6 mph44%30.29 "Hg10 mi
8:52 pm56 °FClear.8 mph42%30.31 "Hg10 mi
9:52 pm56 °FClear.9 mph49%30.31 "Hg10 mi
10:52 pm56 °FClear.10 mph53%30.31 "Hg10 mi
11:52 pm57 °FClear.12 mph51%30.32 "Hg10 mi
Weather by CustomWeather, © 2022

See weather overview